Time;durP1;ratioP1;P1;durP2;ratioP2;P2;SDS_P1;SDS_P2;PMS_P1;PMS_P2;Temp;Humidity;BMP_temperature;BMP_pressure;BME280_temperature;BME280_humidity;BME280_pressure;Samples;Min_cycle;Max_cycle;Signal;HPM_P1;HPM_P2
2024/03/18 00:02:17;;;;;;;;;;;9.10;99.90;;;8.53;100.00;98050.13;4998664;28;1554;-69
2024/03/18 00:04:43;;;;;;;;;;;9.10;99.90;;;8.41;100.00;98049.59;4983295;28;1567;-69
2024/03/18 00:07:09;;;;;;;;;;;9.20;99.90;;;8.34;100.00;98041.94;4994628;28;1969;-69
2024/03/18 00:09:36;;;;;;;;;;;9.20;99.90;;;8.26;100.00;98038.72;4999587;28;1615;-69
2024/03/18 00:12:02;;;;;;;;;;;9.10;99.90;;;8.32;100.00;98035.13;4983102;28;1764;-69
2024/03/18 00:14:28;;;;;;;;;;;9.00;99.90;;;8.24;100.00;98032.75;5000505;28;1618;-69
2024/03/18 00:16:54;;;;;;;;;;;9.00;99.90;;;8.29;100.00;98033.47;4981231;28;1447;-69
2024/03/18 00:19:21;;;;;;;;;;;8.90;99.90;;;8.22;100.00;98031.94;4979153;28;1610;-69
2024/03/18 00:21:47;;;;;;;;;;;8.90;99.90;;;8.27;100.00;98027.47;4981817;28;1545;-69
2024/03/18 00:24:13;;;;;;;;;;;8.80;99.90;;;8.22;100.00;98019.00;4993947;28;1801;-69
2024/03/18 00:26:39;;;;;;;;;;;8.80;99.90;;;8.33;100.00;98016.97;4963843;28;1998;-69
2024/03/18 00:29:05;;;;;;;;;;;8.80;99.90;;;8.31;100.00;98011.00;4965020;28;1841;-69
2024/03/18 00:31:31;;;;;;;;;;;8.90;99.90;;;8.16;100.00;98013.97;4979374;28;1423;-69
2024/03/18 00:33:57;;;;;;;;;;;8.90;99.90;;;8.24;100.00;98008.63;4964401;28;1401;-69
2024/03/18 00:36:23;;;;;;;;;;;8.90;99.90;;;8.08;100.00;98003.00;4976383;28;1650;-69
2024/03/18 00:38:50;;;;;;;;;;;8.80;99.90;;;8.17;100.00;98000.19;4995253;28;1719;-69
2024/03/18 00:44:02;;;;;;;;;;;8.70;99.90;;;8.19;100.00;98011.34;4996930;28;1750;-69
2024/03/18 00:46:29;;;;;;;;;;;8.60;99.90;;;8.12;100.00;98002.88;4963779;28;1580;-69
2024/03/18 00:48:54;;;;;;;;;;;8.50;99.90;;;8.02;100.00;98001.41;4961836;28;1907;-69
2024/03/18 00:51:21;;;;;;;;;;;8.60;99.90;;;8.10;100.00;97993.47;4976431;28;1553;-69
2024/03/18 00:53:47;;;;;;;;;;;8.60;99.90;;;8.03;100.00;97994.50;4980413;28;1551;-69
2024/03/18 00:56:13;;;;;;;;;;;8.50;99.90;;;8.14;100.00;97998.53;4992889;28;1549;-69
2024/03/18 00:58:39;;;;;;;;;;;8.60;99.90;;;8.22;100.00;97994.88;4980733;28;1619;-69
2024/03/18 01:01:07;;;;;;;;;;;8.60;99.90;;;8.26;100.00;97981.00;4992349;28;1596;-69
2024/03/18 01:03:34;;;;;;;;;;;8.70;99.90;;;8.24;100.00;97983.59;4980173;28;1693;-69
2024/03/18 01:06:00;;;;;;;;;;;8.80;99.90;;;8.21;100.00;97978.53;4981928;28;1488;-69
2024/03/18 01:08:26;;;;;;;;;;;8.90;99.90;;;8.20;100.00;97973.38;4995524;28;1899;-69
2024/03/18 01:10:52;;;;;;;;;;;9.00;99.90;;;8.23;100.00;97973.28;4975740;28;1645;-69
2024/03/18 01:13:18;;;;;;;;;;;9.00;99.90;;;8.34;100.00;97972.09;4981646;28;1406;-69
2024/03/18 01:15:44;;;;;;;;;;;9.00;99.90;;;8.34;100.00;97973.84;4995419;28;1560;-69
2024/03/18 01:18:10;;;;;;;;;;;8.90;99.90;;;8.25;100.00;97959.44;4993229;28;1894;-69
2024/03/18 01:20:36;;;;;;;;;;;8.90;99.90;;;8.26;100.00;97955.13;4964808;28;1524;-69
2024/03/18 01:23:03;;;;;;;;;;;8.90;99.90;;;8.44;100.00;97953.78;4994143;28;1619;-69
2024/03/18 01:25:29;;;;;;;;;;;9.00;99.90;;;8.52;100.00;97952.69;4978327;28;1594;-69
2024/03/18 01:27:55;;;;;;;;;;;9.00;99.90;;;8.58;100.00;97947.34;5000723;28;1975;-69
2024/03/18 01:30:22;;;;;;;;;;;9.10;99.90;;;8.32;100.00;97944.59;4967791;28;1699;-69
2024/03/18 01:32:49;;;;;;;;;;;9.10;99.90;;;8.36;100.00;97936.69;4968425;28;1810;-69
2024/03/18 01:35:15;;;;;;;;;;;9.00;99.90;;;8.41;100.00;97931.44;4994196;28;1850;-69
2024/03/18 01:37:45;;;;;;;;;;;8.90;99.90;;;8.34;100.00;97930.72;4998616;28;1478;-69
2024/03/18 01:40:13;;;;;;;;;;;8.70;99.90;;;8.35;100.00;97926.41;4980219;28;1694;-69
2024/03/18 01:42:39;;;;;;;;;;;8.70;99.90;;;8.21;100.00;97925.94;4984707;28;1839;-69
2024/03/18 01:45:06;;;;;;;;;;;8.60;99.90;;;8.08;100.00;97922.84;4982173;28;1764;-69
2024/03/18 01:47:32;;;;;;;;;;;8.60;99.90;;;8.08;100.00;97930.59;4998631;28;1906;-69
2024/03/18 01:49:58;;;;;;;;;;;8.60;99.90;;;8.09;100.00;97914.19;4969699;28;1689;-69
2024/03/18 01:52:24;;;;;;;;;;;8.60;99.90;;;8.10;100.00;97921.06;4983859;28;1468;-69
2024/03/18 01:54:51;;;;;;;;;;;8.50;99.90;;;8.11;100.00;97918.44;5001196;28;1451;-69
2024/03/18 01:57:17;;;;;;;;;;;8.50;99.90;;;8.18;100.00;97919.94;4997444;28;1606;-69
2024/03/18 01:59:43;;;;;;;;;;;8.50;99.90;;;8.05;100.00;97918.63;4998412;28;2338;-69
2024/03/18 02:02:11;;;;;;;;;;;8.50;99.90;;;8.13;100.00;97910.63;4982194;28;1622;-69
2024/03/18 02:04:37;;;;;;;;;;;8.70;99.90;;;8.18;100.00;97916.53;4982054;28;1395;-69
2024/03/18 02:07:20;;;;;;;;;;;8.70;99.90;;;8.30;100.00;97910.16;4965468;28;2400;-69
2024/03/18 02:09:46;;;;;;;;;;;8.70;99.90;;;8.12;100.00;97914.13;4997512;28;1586;-69
2024/03/18 02:12:12;;;;;;;;;;;8.70;99.90;;;8.20;100.00;97913.91;4998347;28;1471;-69
2024/03/18 02:14:38;;;;;;;;;;;8.80;99.90;;;8.20;100.00;97911.31;4982038;28;1465;-69
2024/03/18 02:17:04;;;;;;;;;;;8.90;99.90;;;8.27;100.00;97902.50;4984042;28;1740;-69
2024/03/18 02:19:30;;;;;;;;;;;8.90;99.90;;;8.37;100.00;97897.03;4982520;28;1764;-69
2024/03/18 02:21:55;;;;;;;;;;;9.00;99.90;;;8.44;100.00;97897.75;4981006;28;1631;-69
2024/03/18 02:24:22;;;;;;;;;;;8.90;99.90;;;8.50;100.00;97894.94;4999001;28;1612;-69
2024/03/18 02:26:48;;;;;;;;;;;8.90;99.90;;;8.52;100.00;97895.75;4998968;28;1903;-69
2024/03/18 02:29:14;;;;;;;;;;;8.90;99.90;;;8.33;100.00;97884.22;4965410;28;1649;-70
2024/03/18 02:31:40;;;;;;;;;;;9.00;99.90;;;8.29;100.00;97883.47;4997440;28;1568;-70
2024/03/18 02:34:07;;;;;;;;;;;9.00;99.90;;;8.32;100.00;97882.53;4981075;28;1601;-70
2024/03/18 02:36:33;;;;;;;;;;;9.00;99.90;;;8.35;100.00;97875.53;4983132;28;1654;-69
2024/03/18 02:38:59;;;;;;;;;;;9.00;99.90;;;8.27;100.00;97872.31;4963599;28;1903;-69
2024/03/18 02:41:25;;;;;;;;;;;9.10;99.90;;;8.30;100.00;97869.66;4981562;28;1600;-69
2024/03/18 02:43:51;;;;;;;;;;;9.10;99.90;;;8.37;100.00;97862.56;4982894;28;1757;-69
2024/03/18 02:46:17;;;;;;;;;;;9.10;99.90;;;8.46;100.00;97857.16;4997100;28;1629;-69
2024/03/18 02:48:43;;;;;;;;;;;9.20;99.90;;;8.50;100.00;97863.06;4995508;28;1903;-69
2024/03/18 02:51:09;;;;;;;;;;;9.20;99.90;;;8.43;100.00;97858.97;4981117;28;1703;-69
2024/03/18 02:53:35;;;;;;;;;;;9.20;99.90;;;8.48;100.00;97854.50;4982720;28;1680;-69
2024/03/18 02:56:01;;;;;;;;;;;9.30;99.90;;;8.47;100.00;97851.06;4982922;28;1730;-69
2024/03/18 02:58:27;;;;;;;;;;;9.30;99.90;;;8.63;100.00;97853.22;4964438;28;1575;-69
2024/03/18 03:00:52;;;;;;;;;;;9.30;99.90;;;8.66;100.00;97842.75;4984412;28;1569;-69
2024/03/18 03:03:18;;;;;;;;;;;9.30;99.90;;;8.61;100.00;97837.72;4997282;28;1705;-69
2024/03/18 03:05:44;;;;;;;;;;;9.30;99.90;;;8.63;100.00;97832.50;4997280;28;1681;-69
2024/03/18 03:08:11;;;;;;;;;;;9.30;99.90;;;8.56;100.00;97831.84;4964344;28;1911;-69
2024/03/18 03:10:39;;;;;;;;;;;9.20;99.90;;;8.53;100.00;97832.78;4999827;28;1523;-69
2024/03/18 03:13:05;;;;;;;;;;;9.20;99.90;;;8.54;100.00;97833.63;4980239;28;1505;-69
2024/03/18 03:15:35;;;;;;;;;;;9.20;99.90;;;8.55;100.00;97818.06;4994664;28;1871;-69
2024/03/18 03:18:01;;;;;;;;;;;9.10;99.90;;;8.57;100.00;97833.53;4984633;28;1613;-69
2024/03/18 03:20:30;;;;;;;;;;;9.20;99.90;;;8.47;100.00;97829.53;4982146;28;1669;-69
2024/03/18 03:22:58;;;;;;;;;;;9.20;99.90;;;8.54;100.00;97823.28;5000214;28;1637;-69
2024/03/18 03:25:24;;;;;;;;;;;9.20;99.90;;;8.50;100.00;97825.09;4998067;28;1846;-69
2024/03/18 03:27:50;;;;;;;;;;;9.20;99.90;;;8.36;100.00;97816.88;4984646;28;1903;-69
2024/03/18 03:30:15;;;;;;;;;;;9.20;99.90;;;8.63;100.00;97822.16;4981354;28;1591;-69
2024/03/18 03:32:41;;;;;;;;;;;9.20;99.90;;;8.68;100.00;97818.53;4997413;28;1476;-69
2024/03/18 03:35:07;;;;;;;;;;;9.30;99.90;;;8.76;100.00;97813.13;4998648;28;1877;-69
2024/03/18 03:37:35;;;;;;;;;;;9.30;99.90;;;8.55;100.00;97802.53;4979040;28;1667;-69
2024/03/18 03:40:01;;;;;;;;;;;9.20;99.90;;;8.66;100.00;97807.38;4982326;28;1724;-69
2024/03/18 03:42:27;;;;;;;;;;;9.30;99.90;;;8.63;100.00;97797.13;4982533;28;1718;-69
2024/03/18 03:44:53;;;;;;;;;;;9.30;99.90;;;8.86;100.00;97795.56;4982928;28;1626;-69
2024/03/18 03:47:19;;;;;;;;;;;9.30;99.90;;;8.92;100.00;97797.94;4996367;28;1910;-69
2024/03/18 03:49:45;;;;;;;;;;;9.30;99.90;;;8.93;100.00;97797.03;4977702;28;1624;-69
2024/03/18 03:52:10;;;;;;;;;;;9.30;99.90;;;8.77;100.00;97789.75;4983814;28;1379;-69
2024/03/18 03:54:37;;;;;;;;;;;9.30;99.90;;;8.77;100.00;97788.91;4963550;28;1524;-69
2024/03/18 03:57:02;;;;;;;;;;;9.30;99.90;;;8.63;100.00;97779.00;4997222;28;1397;-69
2024/03/18 03:59:28;;;;;;;;;;;9.20;99.90;;;8.75;100.00;97782.94;4964848;28;1473;-69
2024/03/18 04:01:56;;;;;;;;;;;9.20;99.90;;;8.68;100.00;97779.69;4996569;28;1816;-69
2024/03/18 04:04:23;;;;;;;;;;;9.20;99.90;;;8.78;100.00;97778.53;4980033;28;1831;-69
2024/03/18 04:06:49;;;;;;;;;;;9.10;99.90;;;8.70;100.00;97771.91;4997406;28;1600;-69
2024/03/18 04:09:15;;;;;;;;;;;9.10;99.90;;;8.73;100.00;97782.97;4980818;28;1985;-69
2024/03/18 04:11:41;;;;;;;;;;;9.30;99.90;;;8.73;100.00;97777.81;4963712;28;1535;-69
2024/03/18 04:14:07;;;;;;;;;;;9.30;99.90;;;8.79;100.00;97772.44;4980665;28;1770;-69
2024/03/18 04:16:33;;;;;;;;;;;9.40;99.90;;;8.96;100.00;97776.22;4978064;28;1779;-69
2024/03/18 04:19:00;;;;;;;;;;;9.50;99.90;;;8.94;100.00;97770.25;4979932;28;1445;-69
2024/03/18 04:21:26;;;;;;;;;;;9.60;99.90;;;9.03;100.00;97769.09;4993784;28;1763;-69
2024/03/18 04:23:52;;;;;;;;;;;9.60;99.90;;;9.05;100.00;97759.53;4979005;28;1510;-69
2024/03/18 04:26:18;;;;;;;;;;;9.60;99.90;;;9.08;100.00;97759.47;4995549;28;1692;-69
2024/03/18 04:28:44;;;;;;;;;;;9.60;99.90;;;9.16;100.00;97765.19;4961141;28;1914;-69
2024/03/18 04:31:11;;;;;;;;;;;9.70;99.90;;;9.21;100.00;97758.13;4997069;28;1655;-69
2024/03/18 04:33:38;;;;;;;;;;;9.70;99.90;;;9.25;100.00;97761.47;4976203;28;1610;-69
2024/03/18 04:36:04;;;;;;;;;;;9.80;99.90;;;9.30;100.00;97764.72;4982046;28;1630;-69
2024/03/18 04:38:30;;;;;;;;;;;9.90;99.90;;;9.36;100.00;97756.75;4981008;28;1404;-69
2024/03/18 04:40:58;;;;;;;;;;;9.90;99.90;;;9.29;100.00;97750.09;4977950;28;1480;-69
2024/03/18 04:43:24;;;;;;;;;;;9.90;99.90;;;9.25;100.00;97743.31;4995817;28;1625;-70
2024/03/18 04:45:50;;;;;;;;;;;9.90;99.90;;;8.97;100.00;97746.84;4997429;28;1707;-69
2024/03/18 04:48:15;;;;;;;;;;;9.80;99.90;;;8.99;100.00;97743.31;4982485;28;1899;-69
2024/03/18 04:50:41;;;;;;;;;;;9.70;99.90;;;8.85;100.00;97747.25;4993331;28;1632;-69
2024/03/18 04:53:07;;;;;;;;;;;9.50;99.90;;;8.92;100.00;97743.59;4978186;28;1634;-69
2024/03/18 04:55:34;;;;;;;;;;;9.50;99.90;;;9.06;100.00;97743.13;4982841;28;1403;-69
2024/03/18 04:58:00;;;;;;;;;;;9.50;99.90;;;9.15;100.00;97748.81;4978930;28;1628;-69
2024/03/18 05:00:26;;;;;;;;;;;9.60;99.90;;;9.17;100.00;97744.44;4959909;28;1375;-69
2024/03/18 05:02:53;;;;;;;;;;;9.60;99.90;;;9.17;100.00;97744.44;5001747;28;1563;-69
2024/03/18 05:05:19;;;;;;;;;;;9.60;99.90;;;8.96;100.00;97748.59;5002207;28;1412;-69
2024/03/18 05:07:45;;;;;;;;;;;9.60;99.90;;;8.87;100.00;97748.03;4984867;28;1985;-69
2024/03/18 05:10:12;;;;;;;;;;;9.60;99.90;;;8.97;100.00;97747.69;4986321;28;1610;-69
2024/03/18 05:12:38;;;;;;;;;;;9.60;99.90;;;9.08;100.00;97755.13;4984958;28;1487;-69
2024/03/18 05:15:07;;;;;;;;;;;9.60;99.90;;;9.19;100.00;97749.56;4984545;28;1692;-69
2024/03/18 05:17:34;;;;;;;;;;;9.60;99.90;;;9.26;100.00;97748.47;4985432;28;1610;-69
2024/03/18 05:20:00;;;;;;;;;;;9.60;99.90;;;9.22;100.00;97744.28;4984555;28;1555;-69
2024/03/18 05:22:26;;;;;;;;;;;9.70;99.90;;;9.16;100.00;97741.91;5002692;28;1470;-69
2024/03/18 05:24:51;;;;;;;;;;;9.70;99.90;;;9.03;100.00;97738.88;4999082;28;1586;-69
2024/03/18 05:27:19;;;;;;;;;;;9.70;99.90;;;9.09;100.00;97741.25;5002351;28;2190;-69
2024/03/18 05:29:46;;;;;;;;;;;9.80;99.90;;;9.03;100.00;97744.03;4987917;28;1514;-69
2024/03/18 05:32:14;;;;;;;;;;;9.80;99.90;;;9.10;100.00;97734.31;4986586;28;1606;-69
2024/03/18 05:34:41;;;;;;;;;;;9.80;99.90;;;8.91;100.00;97740.13;4987158;28;1837;-69
2024/03/18 05:37:06;;;;;;;;;;;9.70;99.90;;;9.10;100.00;97744.69;4987328;28;1594;-69
2024/03/18 05:39:33;;;;;;;;;;;9.60;99.90;;;8.82;100.00;97739.59;5004803;28;1565;-69
2024/03/18 05:41:59;;;;;;;;;;;9.60;99.90;;;8.95;100.00;97736.53;5002058;28;1622;-69
2024/03/18 05:44:25;;;;;;;;;;;9.60;99.90;;;8.98;100.00;97746.78;4984389;28;1428;-69
2024/03/18 05:46:52;;;;;;;;;;;9.50;99.90;;;8.75;100.00;97741.53;4988600;28;1546;-69
2024/03/18 05:49:18;;;;;;;;;;;9.40;99.90;;;8.58;100.00;97750.69;5001792;28;1922;-69
2024/03/18 05:51:47;;;;;;;;;;;9.40;99.90;;;8.52;100.00;97757.81;4988492;28;1731;-69
2024/03/18 05:54:15;;;;;;;;;;;9.40;99.90;;;8.62;100.00;97758.34;4999049;28;1710;-69
2024/03/18 05:56:42;;;;;;;;;;;9.30;99.90;;;8.76;100.00;97761.34;5003865;28;1437;-69
2024/03/18 05:59:11;;;;;;;;;;;9.30;99.90;;;8.62;100.00;97751.44;4985605;28;1585;-69
2024/03/18 06:01:38;;;;;;;;;;;9.30;99.90;;;8.74;100.00;97761.41;5000934;28;1541;-69
2024/03/18 06:04:04;;;;;;;;;;;9.20;99.90;;;8.65;100.00;97760.84;5003157;28;1598;-69
2024/03/18 06:06:30;;;;;;;;;;;9.20;99.90;;;8.81;100.00;97759.47;4984142;28;1667;-69
2024/03/18 06:08:57;;;;;;;;;;;9.20;99.90;;;8.88;100.00;97750.59;4985331;28;2085;-69
2024/03/18 06:11:22;;;;;;;;;;;9.30;99.90;;;8.96;100.00;97747.75;4986907;28;1654;-69
2024/03/18 06:13:48;;;;;;;;;;;9.40;99.90;;;8.88;100.00;97750.59;4986488;28;1734;-69
2024/03/18 06:16:14;;;;;;;;;;;9.40;99.90;;;9.03;100.00;97756.16;4995060;28;1515;-69
2024/03/18 06:18:42;;;;;;;;;;;9.50;99.90;;;9.10;100.00;97752.44;4996803;28;1903;-69
2024/03/18 06:21:16;;;;;;;;;;;9.60;99.90;;;9.27;100.00;97757.91;4982909;28;1754;-69
2024/03/18 06:23:50;;;;;;;;;;;9.60;99.90;;;9.17;100.00;97756.56;5000002;28;1691;-69
2024/03/18 06:26:19;;;;;;;;;;;9.70;99.90;;;9.07;100.00;97757.75;4998421;28;1726;-69
2024/03/18 06:28:46;;;;;;;;;;;9.60;99.90;;;9.33;100.00;97757.72;4996870;28;1910;-69
2024/03/18 06:31:12;;;;;;;;;;;9.70;99.90;;;9.43;100.00;97755.63;4965386;28;1627;-69
2024/03/18 06:33:39;;;;;;;;;;;9.80;99.90;;;9.38;100.00;97752.38;4994741;28;1506;-69
2024/03/18 06:36:11;;;;;;;;;;;9.90;99.90;;;9.44;100.00;97759.91;4994024;28;1640;-69
2024/03/18 06:38:38;;;;;;;;;;;10.00;99.90;;;9.20;100.00;97759.88;4982485;28;1603;-69
2024/03/18 06:41:04;;;;;;;;;;;10.00;99.90;;;9.23;100.00;97755.47;4982150;28;1788;-69
2024/03/18 06:43:31;;;;;;;;;;;9.90;99.90;;;9.18;100.00;97755.63;4979760;28;1388;-69
2024/03/18 06:45:57;;;;;;;;;;;9.90;99.90;;;9.12;100.00;97750.66;4983132;28;1563;-69
2024/03/18 06:48:23;;;;;;;;;;;9.90;99.90;;;9.09;100.00;97756.78;4998664;28;1906;-69
2024/03/18 06:50:49;;;;;;;;;;;9.90;99.90;;;9.19;100.00;97758.19;4984858;28;1681;-69
2024/03/18 06:53:15;;;;;;;;;;;9.80;99.90;;;9.46;100.00;97760.69;4998448;28;1664;-69
2024/03/18 06:55:44;;;;;;;;;;;9.90;99.90;;;9.49;100.00;97765.78;4977568;28;1648;-69
2024/03/18 06:58:11;;;;;;;;;;;10.00;99.90;;;9.44;100.00;97765.09;4995141;28;1734;-69
2024/03/18 07:00:37;;;;;;;;;;;10.00;99.90;;;9.36;100.00;97765.38;4997219;28;1634;-69
2024/03/18 07:03:03;;;;;;;;;;;10.10;99.90;;;9.30;100.00;97772.50;4980420;28;1697;-69
2024/03/18 07:05:30;;;;;;;;;;;10.00;99.90;;;9.33;100.00;97767.25;4966111;28;1867;-69
2024/03/18 07:07:56;;;;;;;;;;;10.00;99.90;;;9.28;100.00;97767.38;4983179;28;1923;-69
2024/03/18 07:10:22;;;;;;;;;;;10.00;99.90;;;9.29;100.00;97768.22;4984510;28;1666;-69
2024/03/18 07:12:48;;;;;;;;;;;10.00;99.90;;;9.29;100.00;97766.47;4999925;28;1594;-69
2024/03/18 07:15:16;;;;;;;;;;;10.00;99.90;;;9.32;100.00;97776.72;4981118;28;1887;-69
2024/03/18 07:17:45;;;;;;;;;;;9.90;99.90;;;9.30;100.00;97781.09;4966346;28;1631;-69
2024/03/18 07:20:12;;;;;;;;;;;10.00;99.90;;;9.52;100.00;97780.38;4977457;28;1577;-69
2024/03/18 07:22:40;;;;;;;;;;;10.00;99.90;;;9.58;100.00;97778.44;4981127;28;1738;-69
2024/03/18 07:25:17;;;;;;;;;;;10.10;99.90;;;9.56;100.00;97775.03;4994674;28;1542;-69
2024/03/18 07:27:44;;;;;;;;;;;10.10;99.90;;;9.54;100.00;97770.81;4976642;28;1902;-69
2024/03/18 07:30:12;;;;;;;;;;;10.20;99.90;;;9.42;100.00;97766.91;4970983;28;1867;-69
2024/03/18 07:32:39;;;;;;;;;;;10.20;99.90;;;9.52;100.00;97768.28;4986809;28;1619;-69
2024/03/18 07:35:06;;;;;;;;;;;10.20;99.90;;;9.77;100.00;97762.22;4994595;28;1731;-69
2024/03/18 07:37:32;;;;;;;;;;;10.20;99.90;;;9.87;100.00;97754.94;4997177;28;1483;-69
2024/03/18 07:39:59;;;;;;;;;;;;;;;9.99;100.00;97751.88;4997271;28;1447;-69
2024/03/18 07:42:25;;;;;;;;;;;;;;;10.17;100.00;97751.22;4992178;28;1471;-69
2024/03/18 07:44:57;;;;;;;;;;;10.40;99.90;;;10.21;100.00;97746.72;4966474;28;1659;-69
2024/03/18 07:47:23;;;;;;;;;;;10.50;99.90;;;10.18;100.00;97741.66;4984152;28;1894;-69
2024/03/18 07:49:50;;;;;;;;;;;10.70;99.90;;;10.35;100.00;97743.63;4966507;28;1476;-69
2024/03/18 07:52:18;;;;;;;;;;;10.80;99.90;;;10.48;100.00;97733.63;4979460;28;1559;-69
2024/03/18 07:54:44;;;;;;;;;;;10.80;99.90;;;10.57;100.00;97739.28;4980743;28;1480;-69
2024/03/18 07:57:10;;;;;;;;;;;10.90;99.90;;;10.35;100.00;97733.25;4963894;28;1728;-69
2024/03/18 07:59:36;;;;;;;;;;;10.90;99.90;;;10.48;100.00;97729.28;4980510;28;1590;-69
2024/03/18 08:02:02;;;;;;;;;;;11.00;99.90;;;10.37;100.00;97729.69;4999339;28;1624;-69
2024/03/18 08:04:28;;;;;;;;;;;11.10;99.90;;;10.61;100.00;97735.66;4995529;28;1546;-69
2024/03/18 08:06:54;;;;;;;;;;;11.10;99.90;;;10.52;100.00;97732.59;4984378;28;1638;-69
2024/03/18 08:09:19;;;;;;;;;;;11.10;99.90;;;10.46;100.00;97731.91;4995073;28;1907;-69
2024/03/18 08:11:46;;;;;;;;;;;11.10;99.90;;;10.68;100.00;97733.69;4993562;28;1858;-69
2024/03/18 08:14:13;;;;;;;;;;;11.20;99.90;;;10.44;100.00;97723.34;4981637;28;1655;-70
2024/03/18 08:16:39;;;;;;;;;;;11.20;99.90;;;10.33;100.00;97733.34;4995907;28;2637;-69
2024/03/18 08:19:06;;;;;;;;;;;11.20;99.90;;;10.39;100.00;97737.44;4993097;28;1613;-70
2024/03/18 08:21:32;;;;;;;;;;;11.10;99.90;;;10.42;100.00;97735.56;4975845;28;1613;-69
2024/03/18 08:23:58;;;;;;;;;;;11.10;99.90;;;10.80;100.00;97735.75;4981517;28;1584;-69
2024/03/18 08:26:25;;;;;;;;;;;11.10;99.90;;;10.53;100.00;97736.88;4962003;28;1310;-70
2024/03/18 08:28:51;;;;;;;;;;;11.10;99.90;;;10.66;100.00;97741.50;4978746;28;1915;-70
2024/03/18 08:31:17;;;;;;;;;;;11.20;99.90;;;10.60;100.00;97741.75;4973976;28;1694;-69
2024/03/18 08:33:43;;;;;;;;;;;11.30;99.90;;;10.68;100.00;97742.31;4993122;28;1637;-69
2024/03/18 08:36:09;;;;;;;;;;;11.30;99.90;;;10.63;100.00;97740.81;4993034;28;1597;-69
2024/03/18 08:38:35;;;;;;;;;;;11.30;99.90;;;10.99;100.00;97742.78;4978313;28;1724;-69
2024/03/18 08:41:01;;;;;;;;;;;11.30;99.90;;;11.00;100.00;97741.91;4995236;28;1492;-69
2024/03/18 08:43:27;;;;;;;;;;;11.30;99.90;;;10.85;100.00;97738.16;4995023;28;1303;-69
2024/03/18 08:45:53;;;;;;;;;;;11.50;99.90;;;11.04;100.00;97743.47;4998030;28;1633;-69
2024/03/18 08:48:20;;;;;;;;;;;11.40;99.90;;;10.99;100.00;97745.38;4975946;28;1911;-69
2024/03/18 08:50:46;;;;;;;;;;;11.50;99.90;;;11.15;100.00;97746.44;4979805;28;1744;-69
2024/03/18 08:53:13;;;;;;;;;;;11.50;99.90;;;11.32;100.00;97747.50;4979121;28;1531;-69
2024/03/18 08:55:39;;;;;;;;;;;11.60;99.90;;;10.85;100.00;97751.16;4996751;28;1554;-69
2024/03/18 08:58:05;;;;;;;;;;;11.60;99.90;;;10.65;100.00;97754.53;4960995;28;1761;-69
2024/03/18 09:00:31;;;;;;;;;;;11.50;99.90;;;10.56;100.00;97760.97;4994023;28;1477;-69
2024/03/18 09:02:57;;;;;;;;;;;11.40;99.90;;;10.57;100.00;97764.41;4978284;28;1565;-69
2024/03/18 09:05:23;;;;;;;;;;;11.30;99.90;;;10.63;100.00;97761.56;4964202;28;1584;-69
2024/03/18 09:07:49;;;;;;;;;;;11.30;99.90;;;10.86;100.00;97776.22;4996518;28;1977;-69
2024/03/18 09:10:15;;;;;;;;;;;11.30;99.90;;;10.83;100.00;97771.13;4981374;28;1733;-69
2024/03/18 09:12:41;;;;;;;;;;;11.40;99.90;;;10.82;100.00;97775.50;4982250;28;1547;-69
2024/03/18 09:15:08;;;;;;;;;;;11.40;99.90;;;11.50;100.00;97775.28;4985408;28;1801;-69
2024/03/18 09:17:34;;;;;;;;;;;11.60;99.90;;;11.81;100.00;97774.78;4985260;28;1894;-69
2024/03/18 09:20:00;;;;;;;;;;;11.90;99.90;;;11.80;100.00;97767.06;4980809;28;1815;-69
2024/03/18 09:22:26;;;;;;;;;;;12.20;99.90;;;11.88;100.00;97757.16;4995522;28;1706;-69
2024/03/18 09:24:52;;;;;;;;;;;12.40;99.90;;;12.20;100.00;97763.53;4993669;28;1408;-69
2024/03/18 09:27:18;;;;;;;;;;;12.50;99.90;;;12.29;100.00;97754.44;4977798;28;1903;-69
2024/03/18 09:29:45;;;;;;;;;;;12.70;99.90;;;12.29;100.00;97744.03;4995957;28;1610;-69
2024/03/18 09:32:11;;;;;;;;;;;12.90;99.90;;;12.99;100.00;97734.56;4978401;28;1887;-69
2024/03/18 09:34:38;;;;;;;;;;;13.00;99.90;;;13.17;100.00;97725.00;4994374;28;1732;-69
2024/03/18 09:37:04;;;;;;;;;;;13.30;99.90;;;13.33;100.00;97720.69;4980114;28;1554;-69
2024/03/18 09:39:30;;;;;;;;;;;13.60;99.90;;;13.18;100.00;97711.03;4977838;28;1777;-69
2024/03/18 09:41:56;;;;;;;;;;;13.80;99.90;;;13.12;100.00;97701.75;4980196;28;1419;-69
2024/03/18 09:44:22;;;;;;;;;;;;;;;13.26;100.00;97703.66;4982936;28;2355;-69
2024/03/18 09:46:48;;;;;;;;;;;14.20;99.90;;;13.50;100.00;97705.94;4981677;28;1663;-69
2024/03/18 09:49:16;;;;;;;;;;;14.30;99.90;;;13.64;100.00;97697.41;4979913;28;1906;-69
2024/03/18 09:51:45;;;;;;;;;;;14.40;99.90;;;13.55;100.00;97699.59;4999743;28;1577;-69
2024/03/18 09:54:20;;;;;;;;;;;14.20;99.90;;;13.67;100.00;97694.63;4982240;28;1828;-69
2024/03/18 09:56:51;;;;;;;;;;;13.60;99.90;;;13.30;100.00;97697.41;4998024;28;1639;-69
2024/03/18 09:59:17;;;;;;;;;;;13.40;99.90;;;13.29;100.00;97706.13;4980133;28;1487;-69
2024/03/18 10:01:43;;;;;;;;;;;13.30;99.90;;;13.40;100.00;97710.81;4995645;28;1555;-69
2024/03/18 10:04:09;;;;;;;;;;;13.50;99.90;;;13.19;100.00;97718.78;4998597;28;1504;-69
2024/03/18 10:06:35;;;;;;;;;;;13.80;99.90;;;12.85;100.00;97727.44;4983289;28;1406;-69
2024/03/18 10:09:02;;;;;;;;;;;13.80;99.90;;;12.71;100.00;97741.13;4981910;28;1981;-69
2024/03/18 10:11:28;;;;;;;;;;;13.70;99.90;;;12.66;100.00;97748.34;4983167;28;1648;-69
2024/03/18 10:13:54;;;;;;;;;;;13.60;99.90;;;12.79;100.00;97752.94;4996542;28;1729;-69
2024/03/18 10:16:22;;;;;;;;;;;13.60;99.90;;;12.79;100.00;97750.34;4997984;28;1770;-69
2024/03/18 10:18:48;;;;;;;;;;;13.60;99.90;;;12.96;100.00;97746.00;4997857;28;1609;-69
2024/03/18 10:21:14;;;;;;;;;;;13.60;99.90;;;13.15;100.00;97750.28;4981063;28;1412;-69
2024/03/18 10:23:53;;;;;;;;;;;13.80;99.90;;;12.93;100.00;97742.69;4980638;28;1610;-69
2024/03/18 10:26:19;;;;;;;;;;;13.90;99.90;;;13.25;100.00;97748.03;4981148;28;1547;-69
2024/03/18 10:28:46;;;;;;;;;;;14.00;99.90;;;13.32;100.00;97732.06;5000777;28;1981;-68
2024/03/18 10:31:14;;;;;;;;;;;14.10;99.90;;;13.27;100.00;97731.41;4980152;28;1380;-69
2024/03/18 10:33:44;;;;;;;;;;;14.10;99.90;;;13.58;100.00;97737.69;4980285;28;1578;-69
2024/03/18 10:36:28;;;;;;;;;;;14.00;99.90;;;14.07;100.00;97736.84;4994537;28;1488;-69
2024/03/18 10:39:07;;;;;;;;;;;14.20;99.90;;;14.10;100.00;97728.88;4983501;28;1589;-69
2024/03/18 10:41:38;;;;;;;;;;;14.40;99.90;;;14.10;100.00;97721.88;4982170;28;1642;-69
2024/03/18 10:44:16;;;;;;;;;;;14.50;99.90;;;14.18;100.00;97721.44;4982965;28;1503;-69
2024/03/18 10:46:43;;;;;;;;;;;14.80;99.90;;;14.22;100.00;97720.34;4997727;28;1625;-69
2024/03/18 10:49:17;;;;;;;;;;;14.90;99.90;;;14.26;100.00;97721.88;4979149;28;1922;-69
2024/03/18 10:51:48;;;;;;;;;;;14.90;99.90;;;13.99;100.00;97726.81;4997165;28;1399;-69
2024/03/18 10:54:15;;;;;;;;;;;14.90;99.90;;;14.36;100.00;97722.19;4981845;28;1638;-69
2024/03/18 10:56:48;;;;;;;;;;;15.00;99.90;;;14.35;100.00;97729.19;4966535;28;1639;-69
2024/03/18 10:59:16;;;;;;;;;;;15.00;99.90;;;14.14;100.00;97728.63;4983419;28;1590;-69
2024/03/18 11:01:42;;;;;;;;;;;15.00;99.90;;;14.13;100.00;97729.53;4982408;28;1384;-69
2024/03/18 11:04:28;;;;;;;;;;;14.80;99.90;;;13.70;100.00;97733.59;4982225;28;1755;-69
2024/03/18 11:06:57;;;;;;;;;;;14.70;99.90;;;14.04;100.00;97742.25;4998054;28;1492;-69
2024/03/18 11:09:24;;;;;;;;;;;14.60;99.90;;;14.44;100.00;97740.91;4995474;28;1907;-69
2024/03/18 11:11:50;;;;;;;;;;;14.70;99.90;;;14.61;100.00;97743.44;4997862;28;1844;-69
2024/03/18 11:14:25;;;;;;;;;;;15.00;99.90;;;14.57;100.00;97738.47;4995050;28;1437;-69
2024/03/18 11:16:54;;;;;;;;;;;15.00;99.90;;;14.92;100.00;97728.63;4996109;28;1434;-69
2024/03/18 11:19:27;;;;;;;;;;;14.80;99.90;;;14.84;100.00;97731.66;4980461;28;1613;-69
2024/03/18 11:21:58;;;;;;;;;;;14.70;99.90;;;14.56;100.00;97727.19;4981139;28;1357;-69
2024/03/18 11:24:24;;;;;;;;;;;14.70;99.90;;;14.00;100.00;97736.34;4995318;28;1583;-69
2024/03/18 11:26:55;;;;;;;;;;;14.70;99.90;;;14.60;100.00;97735.69;4982426;28;1802;-69
2024/03/18 11:29:21;;;;;;;;;;;15.00;99.90;;;14.88;100.00;97731.50;4973531;28;2759;-69
2024/03/18 11:31:52;;;;;;;;;;;15.20;99.90;;;15.04;100.00;97733.13;4977790;28;1786;-69